M I D A S
Marine Information and Data Acquisition System
Tripno 485 of the Zeeleeuw from 2003-05-06 06:51:58 to 2003-05-06 12:18:34
Back to CruiseResearch ActivitiesStationsMapUnderway DataData graphs

EquipmentUnitsComments
TimeDGPSUTC
LatitudeDGPSDM.mWGS84
LongitudeDGPSDM.mWGS84
SpeedMeteo Stationm/sRelative wind speed
DirectionMeteo StationdegRelative wind direction
TemperatureMeteo Stationdeg CelciusAir temperature
PressureMeteo StationPaAtmospheric pressure
HumidityMeteo Station%Relative humidity
Missing or incorrect values are displayed as -999
Metereological data collected by the RV Zeeleeuw from 2003-05-06 06:51:58 to 2003-05-06 12:18:34
Time Latitude Longitude Speed Direction Temperature Pressure Humidity
2003-05-06 06:53 51°13.6 2°56.11 2.2 127 11.8 101860 70
2003-05-06 06:54 51°13.6 2°56.11 4.2 119 11.9 101860 69
2003-05-06 06:55 51°13.61 2°56.08 4.1 120 11.9 101850 69
2003-05-06 06:56 51°13.63 2°55.99 6.7 136 11.9 101850 69
2003-05-06 06:57 51°13.65 2°55.89 5.1 142 11.8 101850 69
2003-05-06 06:58 51°13.68 2°55.79 6 130 11.8 101850 69
2003-05-06 06:59 51°13.69 2°55.78 5.1 74 11.8 101850 69
2003-05-06 07:00 51°13.69 2°55.78 5.2 53 11.8 101850 69
2003-05-06 07:01 51°13.7 2°55.77 6 353 11.8 101860 68
2003-05-06 07:02 51°13.73 2°55.74 5.7 336 11.8 101860 68
2003-05-06 07:03 51°13.76 2°55.69 7.4 345 11.8 101860 68
2003-05-06 07:04 51°13.84 2°55.63 8.9 357 11.8 101860 69
2003-05-06 07:05 51°13.95 2°55.54 9.3 350 11.8 101860 70
2003-05-06 07:06 51°14.07 2°55.45 10.8 350 11.8 101860 70
2003-05-06 07:07 51°14.19 2°55.35 8.6 347 11.7 101850 70
2003-05-06 07:08 51°14.3 2°55.2 10.3 328 11.7 101850 71
2003-05-06 07:09 51°14.39 2°55 10.8 322 11.6 101830 70
2003-05-06 07:10 51°14.44 2°54.77 8.8 313 11.5 101840 70
2003-05-06 07:11 51°14.44 2°54.62 7.7 278 11.5 101860 71
2003-05-06 07:12 51°14.4 2°54.43 7.7 291 11.5 101860 70
2003-05-06 07:13 51°14.32 2°54.15 7.3 292 11.4 101870 71
2003-05-06 07:14 51°14.26 2°53.97 6.8 266 11.5 101880 71
2003-05-06 07:15 51°14.23 2°53.88 6.9 266 11.4 101880 70
2003-05-06 07:16 51°14.21 2°53.81 6.3 262 11.4 101880 70
2003-05-06 07:17 51°14.19 2°53.74 6.8 266 11.4 101880 71
2003-05-06 07:18 51°14.17 2°53.67 7 262 11.4 101880 69
2003-05-06 07:19 51°14.16 2°53.59 5.9 265 11.5 101890 70
2003-05-06 07:20 51°14.11 2°53.45 6.5 278 11.4 101890 70
2003-05-06 07:21 51°13.99 2°53.23 6.7 293 11.5 101890 70
2003-05-06 07:22 51°13.88 2°52.94 7.5 298 11.4 101900 70
2003-05-06 07:23 51°13.77 2°52.64 8.1 300 11.4 101900 70
2003-05-06 07:24 51°13.66 2°52.35 8.6 297 11.4 101900 70
2003-05-06 07:25 51°13.55 2°52.04 9.6 297 11.4 101900 70
2003-05-06 07:26 51°13.44 2°51.74 9 300 11.4 101900 70
2003-05-06 07:27 51°13.33 2°51.43 9.3 296 11.3 101900 71
2003-05-06 07:28 51°13.21 2°51.11 8.5 302 11.3 101900 70
2003-05-06 07:29 51°13.09 2°50.78 9.3 300 11.3 101900 71
2003-05-06 07:30 51°12.97 2°50.44 8.6 304 11.3 101910 71
2003-05-06 07:31 51°12.85 2°50.1 8.9 307 11.3 101910 71
2003-05-06 07:32 51°12.73 2°49.76 10 305 11.2 101900 71
2003-05-06 07:33 51°12.61 2°49.42 9.8 306 11.3 101900 72
2003-05-06 07:34 51°12.5 2°49.07 9.3 305 11.2 101900 72
2003-05-06 07:35 51°12.39 2°48.73 9 302 11.2 101910 72
2003-05-06 07:36 51°12.28 2°48.38 9.1 313 11.2 101910 72
2003-05-06 07:37 51°12.17 2°48.03 9.7 307 11.2 101920 72
2003-05-06 07:38 51°12.06 2°47.68 9.8 307 11.1 101920 72
2003-05-06 07:39 51°11.95 2°47.33 9.2 310 11.2 101930 72
2003-05-06 07:40 51°11.85 2°46.98 9.4 305 11.2 101930 71
2003-05-06 07:41 51°11.74 2°46.63 9.7 302 11.2 101940 72
2003-05-06 07:42 51°11.63 2°46.28 9.9 309 11.2 101930 72
2003-05-06 07:43 51°11.52 2°45.92 9.9 310 11.2 101930 71
2003-05-06 07:44 51°11.42 2°45.57 10.4 308 11.2 101930 72
2003-05-06 07:45 51°11.31 2°45.22 10.1 310 11.2 101940 72
2003-05-06 07:46 51°11.2 2°44.87 10.1 310 11.2 101940 72
2003-05-06 07:47 51°11.09 2°44.52 10.7 311 11.2 101940 73
2003-05-06 07:48 51°10.99 2°44.16 10.2 310 11.1 101940 72
2003-05-06 07:49 51°10.88 2°43.81 10.8 307 11.1 101940 72
2003-05-06 07:50 51°10.77 2°43.46 10.9 311 11.1 101940 72
2003-05-06 07:51 51°10.67 2°43.11 10 316 11.1 101950 73
2003-05-06 07:52 51°10.57 2°42.76 10.2 313 11.1 101960 73
2003-05-06 07:53 51°10.48 2°42.41 10.7 316 11.1 101960 72
2003-05-06 07:54 51°10.38 2°42.05 10.4 311 11.1 101960 72
2003-05-06 07:55 51°10.29 2°41.7 10.6 310 11 101970 72
2003-05-06 07:56 51°10.19 2°41.35 9.3 311 11 101970 72
2003-05-06 07:57 51°10.09 2°40.99 10.5 310 11.1 101970 73
2003-05-06 07:58 51°9.99 2°40.64 10.3 319 11.1 101980 74
2003-05-06 07:59 51°9.9 2°40.28 10.2 313 11 101970 74
2003-05-06 08:00 51°9.8 2°39.92 10 316 11 101980 74
2003-05-06 08:01 51°9.71 2°39.57 10.7 312 11 101980 75
2003-05-06 08:02 51°9.61 2°39.21 9.8 312 11 101980 74
2003-05-06 08:03 51°9.51 2°38.85 11.3 311 11 101980 75
2003-05-06 08:04 51°9.42 2°38.5 10.6 314 11 101980 75
2003-05-06 08:05 51°9.32 2°38.14 9.8 318 11 101980 75
2003-05-06 08:06 51°9.23 2°37.78 9.5 313 11 101980 75
2003-05-06 08:07 51°9.13 2°37.43 10.5 308 10.9 101980 75
2003-05-06 08:08 51°9.06 2°37.19 6.5 280 10.9 101980 75
2003-05-06 08:09 51°9.04 2°37.14 7.5 301 11 101990 76
2003-05-06 08:10 51°9.09 2°37.06 8.9 33 10.9 101990 75
2003-05-06 08:11 51°9.12 2°37.16 5.1 103 10.9 101990 74
2003-05-06 08:12 51°9.11 2°37.21 2.6 106 11 102000 75
2003-05-06 08:13 51°9.1 2°37.22 4.9 101 11 102000 76
2003-05-06 08:14 51°9.1 2°37.22 6.4 89 11.1 102000 77
2003-05-06 08:15 51°9.1 2°37.23 6.5 87 11.1 102000 77
2003-05-06 08:16 51°9.1 2°37.24 7.7 85 11 102010 76
2003-05-06 08:17 51°9.1 2°37.24 6.6 77 11.1 102020 75
2003-05-06 08:18 51°9.1 2°37.25 6.4 75 11.1 102020 75
2003-05-06 08:19 51°9.1 2°37.25 6.9 67 11.1 102020 75
2003-05-06 08:20 51°9.1 2°37.26 7 68 11.2 102020 75
2003-05-06 08:21 51°9.11 2°37.26 6.9 68 11.2 102020 74
2003-05-06 08:22 51°9.11 2°37.26 5.8 70 11.1 102020 75
2003-05-06 08:23 51°9.11 2°37.26 6.9 72 11.3 102020 75
2003-05-06 08:24 51°9.11 2°37.26 7.3 71 11.2 102040 74
2003-05-06 08:25 51°9.11 2°37.26 7.6 73 11.2 102040 74
2003-05-06 08:26 51°9.11 2°37.26 7.7 75 11.2 102040 74
2003-05-06 08:27 51°9.12 2°37.26 7.6 73 11.2 102050 75
2003-05-06 08:28 51°9.12 2°37.26 7 71 11.2 102050 74
2003-05-06 08:29 51°9.12 2°37.26 7.4 73 11.2 102050 75
2003-05-06 08:30 51°9.12 2°37.25 6.8 64 11.1 102050 74
2003-05-06 08:31 51°9.12 2°37.25 7 54 11.2 102060 74
2003-05-06 08:32 51°9.15 2°37.24 7.7 10 11.2 102040 74
2003-05-06 08:33 51°9.18 2°37.16 7.6 304 11.2 102040 74
2003-05-06 08:34 51°9.14 2°36.93 10.4 313 11.1 102030 75
2003-05-06 08:35 51°9.07 2°36.58 10.9 313 11 102040 75
2003-05-06 08:36 51°9 2°36.2 12.3 312 11 102030 75
2003-05-06 08:37 51°8.93 2°35.82 11.7 313 10.9 102030 75
2003-05-06 08:38 51°8.86 2°35.43 11.6 315 10.8 102030 76
2003-05-06 08:39 51°8.77 2°35.06 11.4 312 10.8 102030 76
2003-05-06 08:40 51°8.67 2°34.69 11 307 10.8 102030 77
2003-05-06 08:41 51°8.58 2°34.31 11.3 308 10.8 102030 76
2003-05-06 08:42 51°8.49 2°33.94 12.3 307 10.7 102020 76
2003-05-06 08:43 51°8.4 2°33.56 10.7 313 10.8 102030 76
2003-05-06 08:44 51°8.32 2°33.22 9.5 306 10.8 102030 76
2003-05-06 08:45 51°8.29 2°33.02 7.1 293 10.7 102040 76
2003-05-06 08:46 51°8.25 2°32.9 5.7 230 10.7 102050 76
2003-05-06 08:47 51°8.19 2°32.87 2.6 174 10.8 102050 77
2003-05-06 08:48 51°8.13 2°32.91 3.8 132 10.8 102050 77
2003-05-06 08:49 51°8.07 2°32.97 4 127 10.9 102060 77
2003-05-06 08:50 51°8.05 2°32.95 4 105 10.9 102060 77
2003-05-06 08:51 51°8.04 2°32.97 6.1 72 10.9 102060 77
2003-05-06 08:52 51°8.04 2°32.96 5.8 64 10.9 102070 77
2003-05-06 08:53 51°8.03 2°32.96 5.1 64 11 102070 77
2003-05-06 08:54 51°8.03 2°32.96 6.3 53 11.2 102080 78
2003-05-06 08:55 51°8.04 2°32.95 5.4 131 11.2 102080 77
2003-05-06 08:56 51°8.04 2°32.94 5.3 34 11.2 102080 77
2003-05-06 08:57 51°8.05 2°32.92 5.5 33 11.3 102070 77
2003-05-06 08:58 51°8.05 2°32.91 5.8 42 11.3 102070 76
2003-05-06 08:59 51°8.06 2°32.89 6.5 29 11.4 102080 76
2003-05-06 09:00 51°8.06 2°32.87 5.8 30 11.4 102080 75
2003-05-06 09:01 51°8.06 2°32.85 5 28 11.3 102080 75
2003-05-06 09:02 51°8.07 2°32.83 6 33 11.4 102090 75
2003-05-06 09:03 51°8.07 2°32.81 5.5 24 11.4 102090 74
2003-05-06 09:04 51°8.07 2°32.79 5.9 24 11.4 102090 74
2003-05-06 09:05 51°8.08 2°32.77 5.7 22 11.3 102090 74
2003-05-06 09:06 51°8.08 2°32.75 6.1 26 11.3 102100 73
2003-05-06 09:07 51°8.1 2°32.73 7.1 43 11.3 102110 73
2003-05-06 09:08 51°8.13 2°32.75 6 67 11.3 102120 73
2003-05-06 09:09 51°8.14 2°32.8 6 73 11.3 102130 73
2003-05-06 09:10 51°8.11 2°32.92 0.7 168 11.2 102130 73
2003-05-06 09:11 51°8.04 2°33.02 5.1 83 11.3 102130 73
2003-05-06 09:12 51°8.05 2°33.08 4.9 71 11.3 102130 74
2003-05-06 09:13 51°8.05 2°33.07 5.9 66 11.3 102140 74
2003-05-06 09:14 51°8.05 2°33.06 5.4 47 11.3 102130 74
2003-05-06 09:15 51°8.05 2°33.05 5.4 42 11.3 102130 74
2003-05-06 09:16 51°8.05 2°33.04 6.3 47 11.4 102130 75
2003-05-06 09:17 51°8.05 2°33.02 6.3 319 11.4 102130 74
2003-05-06 09:18 51°8.06 2°33 7.3 17 11.3 102130 73
2003-05-06 09:19 51°8.1 2°32.96 7.6 14 11.3 102120 73
2003-05-06 09:20 51°8.22 2°32.91 11.6 10 11.3 102110 74
2003-05-06 09:21 51°8.42 2°32.87 11.3 6 11.3 102110 74
2003-05-06 09:22 51°8.63 2°32.82 12.4 13 11.4 102110 75
2003-05-06 09:23 51°8.83 2°32.77 12.3 12 11.3 102100 74
2003-05-06 09:24 51°8.98 2°32.72 9.3 19 11.3 102100 74
2003-05-06 09:25 51°9.04 2°32.75 6.3 69 11.2 102140 74
2003-05-06 09:26 51°9.05 2°32.77 6.4 73 11.1 102150 74
2003-05-06 09:27 51°9.05 2°32.77 5.9 75 11 102150 74
2003-05-06 09:28 51°9.05 2°32.77 6.4 61 11 102150 74
2003-05-06 09:29 51°9.06 2°32.77 6.2 44 11 102150 74
2003-05-06 09:30 51°9.06 2°32.75 6.3 32 11.1 102150 74
2003-05-06 09:31 51°9.06 2°32.73 5.2 20 11.1 102150 73
2003-05-06 09:32 51°9.07 2°32.71 6 6 11.2 102150 74
2003-05-06 09:33 51°9.07 2°32.67 5.3 351 11.2 102150 74
2003-05-06 09:34 51°9.07 2°32.63 5.3 332 11.2 102160 74
2003-05-06 09:35 51°9.07 2°32.58 5.7 330 11.1 102150 73
2003-05-06 09:36 51°9.06 2°32.53 6.2 332 11 102160 74
2003-05-06 09:37 51°9.06 2°32.48 5.2 340 10.9 102160 74
2003-05-06 09:38 51°9.08 2°32.43 6.4 359 11 102160 74
2003-05-06 09:39 51°9.12 2°32.44 5.7 62 11 102150 73
2003-05-06 09:40 51°9.11 2°32.61 4.5 89 11.1 102170 74
2003-05-06 09:41 51°9.11 2°32.72 4.9 77 11 102170 74
2003-05-06 09:42 51°9.12 2°32.77 4.4 75 11.1 102180 74
2003-05-06 09:43 51°9.12 2°32.78 5.8 62 11.1 102190 74
2003-05-06 09:44 51°9.12 2°32.77 4.9 55 11.1 102180 73
2003-05-06 09:45 51°9.12 2°32.77 5.2 55 11.2 102180 73
2003-05-06 09:46 51°9.11 2°32.76 5.9 68 11.2 102190 73
2003-05-06 09:47 51°9.11 2°32.76 5.8 73 11.2 102190 73
2003-05-06 09:48 51°9.1 2°32.75 5.2 66 11.2 102200 73
2003-05-06 09:49 51°9.09 2°32.74 5.2 73 11.2 102200 74
2003-05-06 09:50 51°9.09 2°32.73 6.3 71 11.3 102200 74
2003-05-06 09:51 51°9.08 2°32.72 5.8 67 11.2 102200 73
2003-05-06 09:52 51°9.07 2°32.71 5.2 67 11.2 102210 73
2003-05-06 09:53 51°9.11 2°32.76 8.2 42 11.2 102210 73
2003-05-06 09:54 51°9.24 2°32.96 9.9 28 11.2 102180 72
2003-05-06 09:55 51°9.38 2°33.2 10.1 33 11.3 102180 72
2003-05-06 09:56 51°9.52 2°33.44 9.8 27 11.3 102170 72
2003-05-06 09:57 51°9.67 2°33.67 9.9 34 11.3 102180 72
2003-05-06 09:58 51°9.82 2°33.91 10 30 11.3 102190 73
2003-05-06 09:59 51°9.96 2°34.15 10.7 34 11.3 102190 72
2003-05-06 10:00 51°10.11 2°34.4 9.3 37 11.2 102190 72
2003-05-06 10:01 51°10.25 2°34.65 10.2 34 11.2 102200 72
2003-05-06 10:02 51°10.38 2°34.9 9.5 34 11.2 102200 73
2003-05-06 10:03 51°10.52 2°35.13 10.1 31 11.2 102200 73
2003-05-06 10:04 51°10.65 2°35.38 11.1 32 11.2 102200 72
2003-05-06 10:05 51°10.79 2°35.63 10.4 31 11.2 102190 72
2003-05-06 10:06 51°10.93 2°35.88 10.9 37 11.1 102190 71
2003-05-06 10:07 51°11.07 2°36.12 11.7 29 11.1 102190 72
2003-05-06 10:08 51°11.22 2°36.33 10.8 27 11.2 102190 72
2003-05-06 10:09 51°11.38 2°36.54 11.1 27 11.1 102190 72
2003-05-06 10:10 51°11.54 2°36.75 11.5 28 11.1 102200 73
2003-05-06 10:11 51°11.7 2°36.96 11.3 28 11.1 102200 73
2003-05-06 10:12 51°11.86 2°37.17 11.2 25 11.1 102200 73
2003-05-06 10:13 51°12.02 2°37.38 10.5 31 11 102210 73
2003-05-06 10:14 51°12.18 2°37.59 11.2 27 11 102210 73
2003-05-06 10:15 51°12.33 2°37.8 11.7 28 11 102210 73
2003-05-06 10:16 51°12.49 2°38.01 10.9 30 11 102210 73
2003-05-06 10:17 51°12.65 2°38.22 10.3 28 11 102210 74
2003-05-06 10:18 51°12.8 2°38.42 11.1 26 11 102220 74
2003-05-06 10:19 51°12.96 2°38.63 10.9 30 11 102210 74
2003-05-06 10:20 51°13.12 2°38.83 11 34 11 102220 74
2003-05-06 10:21 51°13.28 2°39.04 10.7 33 11 102220 74
2003-05-06 10:22 51°13.44 2°39.24 10.3 26 10.9 102220 73
2003-05-06 10:23 51°13.63 2°39.34 13 12 10.9 102220 74
2003-05-06 10:24 51°13.84 2°39.34 12.5 14 10.9 102220 73
2003-05-06 10:25 51°14.05 2°39.35 12.3 14 10.9 102220 74
2003-05-06 10:26 51°14.25 2°39.29 13 359 10.9 102220 73
2003-05-06 10:27 51°14.41 2°39.05 12.5 341 10.9 102230 74
2003-05-06 10:28 51°14.43 2°38.69 11 322 10.9 102210 74
2003-05-06 10:29 51°14.32 2°38.34 10.4 316 10.8 102230 75
2003-05-06 10:30 51°14.22 2°37.98 10 319 10.6 102230 74
2003-05-06 10:31 51°14.12 2°37.62 10.1 323 10.6 102220 76
2003-05-06 10:32 51°14.02 2°37.25 10.4 323 10.6 102220 76
2003-05-06 10:33 51°13.92 2°36.88 10.1 325 10.5 102230 75
2003-05-06 10:34 51°13.83 2°36.5 10.4 321 10.5 102240 75
2003-05-06 10:35 51°13.74 2°36.13 9.8 323 10.5 102240 75
2003-05-06 10:36 51°13.68 2°35.75 11.4 330 10.6 102250 76
2003-05-06 10:37 51°13.73 2°35.37 11.2 345 10.6 102230 74
2003-05-06 10:38 51°13.89 2°35.13 11.6 5 10.7 102250 73
2003-05-06 10:39 51°14.1 2°35.06 11 7 10.8 102250 73
2003-05-06 10:40 51°14.32 2°35.04 11 9 10.8 102240 73
2003-05-06 10:41 51°14.53 2°35.04 10.9 9 10.9 102240 72
2003-05-06 10:42 51°14.74 2°35.04 10.7 11 10.9 102240 72
2003-05-06 10:43 51°14.94 2°35.13 10.4 19 11 102250 72
2003-05-06 10:44 51°15.13 2°35.28 10.7 22 11 102250 73
2003-05-06 10:45 51°15.31 2°35.42 10.5 22 11 102250 73
2003-05-06 10:46 51°15.5 2°35.56 10.2 20 11 102250 72
2003-05-06 10:47 51°15.68 2°35.7 9.9 21 11 102250 73
2003-05-06 10:48 51°15.86 2°35.83 10 22 11 102250 72
2003-05-06 10:49 51°16.04 2°35.97 9.6 23 11.1 102260 73
2003-05-06 10:50 51°16.22 2°36.11 9.9 19 11.1 102260 73
2003-05-06 10:51 51°16.4 2°36.25 10.7 21 11.1 102250 73
2003-05-06 10:52 51°16.59 2°36.39 10 20 11 102250 72
2003-05-06 10:53 51°16.76 2°36.54 10.9 18 11 102250 72
2003-05-06 10:54 51°16.94 2°36.69 9.8 24 11 102250 73
2003-05-06 10:55 51°17.12 2°36.83 10.5 22 11 102250 73
2003-05-06 10:56 51°17.3 2°36.99 10.3 19 11 102250 73
2003-05-06 10:57 51°17.48 2°37.14 10.4 24 11 102250 72
2003-05-06 10:58 51°17.65 2°37.29 9.9 21 11 102260 73
2003-05-06 10:59 51°17.83 2°37.44 9.3 19 11 102260 73
2003-05-06 11:00 51°18 2°37.59 9.5 22 10.9 102260 73
2003-05-06 11:01 51°18.18 2°37.74 9.4 23 10.9 102250 73
2003-05-06 11:02 51°18.36 2°37.9 9.2 22 11 102250 73
2003-05-06 11:03 51°18.53 2°38.05 10 21 10.9 102260 74
2003-05-06 11:04 51°18.71 2°38.2 9.8 25 10.9 102250 74
2003-05-06 11:05 51°18.87 2°38.38 9.4 22 10.9 102250 74
2003-05-06 11:06 51°19.04 2°38.55 9.9 22 10.9 102250 75
2003-05-06 11:07 51°19.2 2°38.73 9.5 25 10.9 102250 74
2003-05-06 11:08 51°19.37 2°38.9 9.8 20 10.9 102250 73
2003-05-06 11:09 51°19.53 2°39.09 9.4 21 10.9 102250 74
2003-05-06 11:10 51°19.69 2°39.29 8.6 22 10.9 102250 73
2003-05-06 11:11 51°19.8 2°39.57 7.4 28 10.9 102250 72
2003-05-06 11:12 51°19.84 2°39.89 6.6 23 10.9 102260 73
2003-05-06 11:13 51°19.89 2°40.21 7 29 10.9 102250 73
2003-05-06 11:14 51°19.93 2°40.52 6.9 29 10.9 102260 74
2003-05-06 11:15 51°19.99 2°40.84 7.7 28 10.9 102250 74
2003-05-06 11:16 51°20.04 2°41.16 7.5 22 11 102260 74
2003-05-06 11:17 51°20.09 2°41.48 6.9 26 11 102250 74
2003-05-06 11:18 51°20.15 2°41.8 6.9 22 11 102250 74
2003-05-06 11:19 51°20.2 2°42.12 7 23 11 102250 74
2003-05-06 11:20 51°20.24 2°42.44 7.3 26 11 102260 73
2003-05-06 11:21 51°20.29 2°42.76 6.7 21 11 102260 73
2003-05-06 11:22 51°20.3 2°43.09 5.3 18 11.1 102260 73
2003-05-06 11:23 51°20.3 2°43.41 5.9 12 11.1 102260 73
2003-05-06 11:24 51°20.3 2°43.74 6.8 15 11.2 102260 73
2003-05-06 11:25 51°20.3 2°44.06 6.8 14 11.2 102260 72
2003-05-06 11:26 51°20.3 2°44.39 6.2 18 11.2 102260 72
2003-05-06 11:27 51°20.31 2°44.72 5.8 18 11.2 102260 73
2003-05-06 11:28 51°20.31 2°45.05 5.9 18 11.2 102250 72
2003-05-06 11:29 51°20.32 2°45.38 6.6 16 11.2 102260 73
2003-05-06 11:30 51°20.32 2°45.71 5.8 18 11.2 102260 72
2003-05-06 11:31 51°20.33 2°46.04 6.8 15 11.3 102260 73
2003-05-06 11:32 51°20.3 2°46.37 5.2 14 11.3 102260 73
2003-05-06 11:33 51°20.18 2°46.66 5.1 7 11.3 102260 73
2003-05-06 11:34 51°20.05 2°46.93 4.9 9 11.3 102260 72
2003-05-06 11:35 51°19.91 2°47.2 5.4 13 11.3 102260 72
2003-05-06 11:36 51°19.78 2°47.48 4.7 6 11.3 102260 71
2003-05-06 11:37 51°19.66 2°47.76 4.7 1 11.3 102260 72
2003-05-06 11:38 51°19.53 2°48.04 4.7 4 11.3 102260 72
2003-05-06 11:39 51°19.41 2°48.33 4.6 8 11.4 102260 73
2003-05-06 11:40 51°19.29 2°48.62 4.8 8 11.3 102260 72
2003-05-06 11:41 51°19.17 2°48.91 4.4 8 11.3 102260 72
2003-05-06 11:42 51°19.05 2°49.2 4.8 8 11.4 102260 72
2003-05-06 11:43 51°18.93 2°49.49 4.6 12 11.3 102250 72
2003-05-06 11:44 51°18.81 2°49.77 4.5 9 11.4 102250 72
2003-05-06 11:45 51°18.68 2°50.05 4.5 6 11.5 102250 73
2003-05-06 11:46 51°18.56 2°50.32 4.8 9 11.4 102260 72
2003-05-06 11:47 51°18.42 2°50.59 4.4 6 11.4 102260 71
2003-05-06 11:48 51°18.29 2°50.86 4.1 8 11.4 102270 71
2003-05-06 11:49 51°18.16 2°51.13 4 9 11.4 102260 71
2003-05-06 11:50 51°18 2°51.38 4.3 4 11.4 102270 72
2003-05-06 11:51 51°17.85 2°51.64 4.4 357 11.4 102270 72
2003-05-06 11:52 51°17.68 2°51.87 4.4 354 11.4 102270 72
2003-05-06 11:53 51°17.47 2°52.03 3.6 344 11.3 102280 71
2003-05-06 11:54 51°17.27 2°52.19 4 348 11.3 102270 72
2003-05-06 11:55 51°17.08 2°52.35 2.3 345 11.3 102270 71
2003-05-06 11:56 51°16.95 2°52.41 0.4 260 11.3 102270 71
2003-05-06 11:57 51°16.88 2°52.44 0.9 160 11.3 102270 71
2003-05-06 11:58 51°16.83 2°52.46 1.4 143 11.3 102270 71
2003-05-06 11:59 51°16.79 2°52.49 1.7 125 11.4 102270 71
2003-05-06 12:00 51°16.76 2°52.52 2.3 120 11.4 102260 71
2003-05-06 12:01 51°16.73 2°52.54 1.8 115 11.3 102260 70
2003-05-06 12:02 51°16.7 2°52.57 1.3 84 11.3 102260 70
2003-05-06 12:03 51°16.56 2°52.73 4 357 11.4 102260 71
2003-05-06 12:04 51°16.37 2°52.93 4.4   11.4 102250 70
2003-05-06 12:05 51°16.16 2°53.1 4.5 359 11.4 102250 71
2003-05-06 12:06 51°15.96 2°53.27 4.1 355 11.4 102260 70
2003-05-06 12:07 51°15.76 2°53.43 4.9 355 11.4 102260 70
2003-05-06 12:08 51°15.56 2°53.62 4.6 3 11.5 102260 71
2003-05-06 12:09 51°15.37 2°53.83 4.1 357 11.4 102270 71
2003-05-06 12:10 51°15.21 2°54 3.1 7 11.5 102270 72
2003-05-06 12:11 51°15.05 2°54.12 3.5 346 11.6 102270 72
2003-05-06 12:12 51°14.88 2°54.24 3.9 350 11.6 102280 72
2003-05-06 12:13 51°14.74 2°54.31 1.7 332 11.6 102280 72
2003-05-06 12:14 51°14.66 2°54.37 0.3 332 11.8 102280 73
2003-05-06 12:15 51°14.58 2°54.43 2 10 12 102280 72
2003-05-06 12:16 51°14.5 2°54.61 3.4 8 11.9 102280 69
2003-05-06 12:17 51°14.43 2°54.83 3.9 14 12 102280 69
2003-05-06 12:18 51°14.35 2°55.06 4 22 12 102280 68